createdAt,value
2019-02-25T00:02:27.022Z,23.27
2019-02-25T00:04:54.535Z,27.87
2019-02-25T00:07:22.048Z,24.13
2019-02-25T00:09:50.081Z,23.23
2019-02-25T00:12:17.575Z,26.07
2019-02-25T00:14:45.085Z,23.53
2019-02-25T00:17:12.561Z,23.90
2019-02-25T00:19:40.062Z,24.37
2019-02-25T00:22:07.564Z,30.53
2019-02-25T00:24:35.389Z,23.00
2019-02-25T00:27:02.863Z,22.30
2019-02-25T00:29:30.843Z,26.50
2019-02-25T00:31:58.392Z,26.77
2019-02-25T00:34:25.867Z,27.20
2019-02-25T00:36:53.358Z,25.33
2019-02-25T00:39:20.901Z,20.97
2019-02-25T00:41:48.762Z,23.73
2019-02-25T00:44:16.319Z,20.77
2019-02-25T00:46:43.812Z,24.83
2019-02-25T00:49:11.624Z,25.63
2019-02-25T00:51:39.103Z,23.20
2019-02-25T00:54:06.595Z,26.83
2019-02-25T00:56:34.110Z,28.47
2019-02-25T00:59:01.568Z,20.97
2019-02-25T01:01:29.065Z,22.20
2019-02-25T01:03:56.578Z,19.60
2019-02-25T01:06:24.207Z,28.07
2019-02-25T01:08:51.662Z,25.30
2019-02-25T01:11:19.152Z,24.27
2019-02-25T01:13:46.910Z,18.60
2019-02-25T01:16:14.400Z,21.67
2019-02-25T01:18:41.856Z,21.03
2019-02-25T01:21:09.347Z,20.77
2019-02-25T01:23:36.804Z,26.87
2019-02-25T01:26:04.317Z,20.10
2019-02-25T01:28:32.190Z,22.60
2019-02-25T01:30:59.880Z,19.20
2019-02-25T01:33:27.360Z,19.43
2019-02-25T01:35:54.869Z,22.80
2019-02-25T01:38:22.362Z,22.00
2019-02-25T01:40:49.857Z,18.50
2019-02-25T01:43:17.336Z,17.23
2019-02-25T01:45:44.904Z,21.33
2019-02-25T01:48:12.394Z,25.33
2019-02-25T01:50:39.874Z,23.20
2019-02-25T01:53:07.350Z,21.90
2019-02-25T01:55:34.895Z,20.93
2019-02-25T01:58:02.622Z,22.07
2019-02-25T02:00:30.110Z,22.03
2019-02-25T02:02:57.765Z,21.90
2019-02-25T02:05:25.325Z,21.20
2019-02-25T02:07:52.854Z,23.67
2019-02-25T02:10:20.321Z,21.00
2019-02-25T02:12:48.219Z,19.80
2019-02-25T02:15:16.105Z,20.03
2019-02-25T02:17:43.600Z,20.33
2019-02-25T02:20:12.339Z,22.53
2019-02-25T02:22:39.869Z,19.97
2019-02-25T02:25:07.580Z,18.37
2019-02-25T02:27:35.162Z,18.90
2019-02-25T02:30:02.899Z,19.17
2019-02-25T02:32:30.832Z,19.87
2019-02-25T02:34:58.339Z,19.90
2019-02-25T02:37:26.561Z,19.13
2019-02-25T02:39:54.420Z,22.13
2019-02-25T02:42:22.251Z,22.23
2019-02-25T02:44:52.392Z,23.83
2019-02-25T02:47:56.212Z,23.93
2019-02-25T02:50:25.076Z,26.77
2019-02-25T02:52:52.985Z,25.73
2019-02-25T02:55:20.451Z,24.97
2019-02-25T02:57:47.984Z,24.30
2019-02-25T03:00:16.645Z,21.43
2019-02-25T03:02:44.174Z,23.57
2019-02-25T03:05:13.417Z,22.50
2019-02-25T03:07:40.908Z,21.13
2019-02-25T03:10:09.383Z,19.13
2019-02-25T03:12:36.862Z,25.47
2019-02-25T03:15:06.172Z,21.07
2019-02-25T03:17:33.687Z,19.37
2019-02-25T03:20:01.198Z,23.53
2019-02-25T03:22:28.667Z,25.90
2019-02-25T03:24:56.493Z,19.93
2019-02-25T03:27:23.977Z,22.43
2019-02-25T03:29:51.443Z,26.93
2019-02-25T03:32:18.921Z,24.50
2019-02-25T03:34:46.381Z,22.23
2019-02-25T03:37:13.878Z,26.13
2019-02-25T03:39:41.354Z,24.70
2019-02-25T03:42:09.143Z,22.90
2019-02-25T03:44:36.653Z,21.63
2019-02-25T03:47:04.149Z,19.70
2019-02-25T03:49:31.649Z,21.73
2019-02-25T03:51:59.154Z,22.97
2019-02-25T03:54:26.613Z,25.93
2019-02-25T03:56:54.078Z,18.53
2019-02-25T03:59:21.541Z,24.23
2019-02-25T04:01:49.024Z,21.10
2019-02-25T04:04:16.511Z,19.37
2019-02-25T04:06:43.974Z,16.23
2019-02-25T04:09:11.740Z,23.10
2019-02-25T04:11:39.346Z,22.27
2019-02-25T04:14:06.825Z,24.27
2019-02-25T04:16:34.439Z,17.90
2019-02-25T04:19:01.916Z,21.00
2019-02-25T04:21:29.416Z,24.07
2019-02-25T04:23:56.858Z,22.73
2019-02-25T04:26:24.371Z,24.37
2019-02-25T04:28:51.830Z,26.10
2019-02-25T04:31:19.303Z,22.20
2019-02-25T04:33:46.772Z,22.80
2019-02-25T04:36:14.285Z,20.73
2019-02-25T04:38:41.732Z,23.67
2019-02-25T04:41:09.201Z,24.67
2019-02-25T04:43:36.639Z,25.20
2019-02-25T04:46:04.176Z,19.73
2019-02-25T04:48:31.659Z,23.63
2019-02-25T04:50:59.147Z,25.50
2019-02-25T04:53:26.649Z,22.77
2019-02-25T04:55:54.163Z,22.10
2019-02-25T04:58:21.618Z,22.57
2019-02-25T05:00:49.136Z,27.30
2019-02-25T05:03:16.595Z,23.20
2019-02-25T05:05:44.088Z,27.90
2019-02-25T05:08:11.551Z,23.90
2019-02-25T05:10:39.058Z,23.37
2019-02-25T05:13:06.726Z,24.93
2019-02-25T05:15:34.814Z,23.93
2019-02-25T05:18:02.313Z,25.40
2019-02-25T05:20:29.846Z,25.20
2019-02-25T05:22:57.339Z,22.60
2019-02-25T05:25:24.847Z,23.67
2019-02-25T05:27:52.324Z,22.00
2019-02-25T05:30:19.810Z,28.20
2019-02-25T05:32:47.389Z,24.93
2019-02-25T05:35:14.987Z,24.97
2019-02-25T05:37:42.568Z,21.10
2019-02-25T05:40:12.252Z,22.37
2019-02-25T05:42:39.916Z,25.20
2019-02-25T05:45:07.816Z,25.77
2019-02-25T05:47:35.373Z,20.77
2019-02-25T05:50:03.222Z,25.30
2019-02-25T05:52:30.778Z,27.00
2019-02-25T05:54:58.244Z,31.57
2019-02-25T05:57:25.739Z,33.40
2019-02-25T05:59:53.233Z,25.90
2019-02-25T06:02:20.752Z,24.23
2019-02-25T06:04:48.199Z,29.80
2019-02-25T06:07:15.696Z,23.13
2019-02-25T06:09:43.473Z,29.27
2019-02-25T06:12:10.924Z,23.63
2019-02-25T06:14:38.380Z,25.63
2019-02-25T06:17:05.834Z,26.30
2019-02-25T06:19:33.294Z,29.23
2019-02-25T06:22:00.776Z,29.20
2019-02-25T06:24:28.255Z,24.93
2019-02-25T06:26:55.739Z,25.03
2019-02-25T06:29:23.254Z,25.70
2019-02-25T06:31:50.668Z,26.77
2019-02-25T06:34:18.450Z,28.43
2019-02-25T06:36:45.879Z,25.43
2019-02-25T06:39:13.370Z,29.67
2019-02-25T06:41:40.807Z,25.00
2019-02-25T06:44:08.314Z,27.10
2019-02-25T06:46:35.832Z,26.10
2019-02-25T06:49:03.309Z,28.17
2019-02-25T06:51:30.769Z,25.50
2019-02-25T06:53:58.231Z,29.60
2019-02-25T06:56:25.694Z,29.10
2019-02-25T06:58:53.180Z,24.90
2019-02-25T07:01:20.643Z,32.10
2019-02-25T07:04:07.622Z,24.17
2019-02-25T07:06:52.408Z,31.03
2019-02-25T07:09:30.831Z,25.63
2019-02-25T07:12:05.524Z,24.63
2019-02-25T07:15:01.510Z,20.00
2019-02-25T07:17:52.118Z,30.23
2019-02-25T07:20:36.692Z,30.03
2019-02-25T07:23:19.694Z,38.20
2019-02-25T07:25:56.087Z,20.87
2019-02-25T07:28:43.022Z,29.17
2019-02-25T07:31:41.916Z,28.47
2019-02-25T07:34:27.405Z,32.17
2019-02-25T07:37:17.419Z,31.60
2019-02-25T07:40:10.063Z,33.27
2019-02-25T07:43:08.931Z,31.10
2019-02-25T07:45:46.019Z,25.83
2019-02-25T07:48:21.243Z,30.17
2019-02-25T07:51:07.524Z,23.47
2019-02-25T07:54:03.529Z,27.13
2019-02-25T07:56:53.167Z,39.60
2019-02-25T07:59:38.679Z,31.40
2019-02-25T08:02:24.783Z,29.70
2019-02-25T08:05:20.711Z,31.43
2019-02-25T08:08:07.698Z,25.87
2019-02-25T08:10:51.259Z,26.10
2019-02-25T08:13:40.837Z,27.17
2019-02-25T08:16:30.725Z,20.37
2019-02-25T08:19:19.291Z,29.13
2019-02-25T08:22:04.784Z,24.43
2019-02-25T08:24:40.556Z,27.57
2019-02-25T08:27:32.483Z,28.50
2019-02-25T08:30:44.625Z,25.27
2019-02-25T08:33:22.613Z,30.37
2019-02-25T08:37:02.773Z,31.07
2019-02-25T08:39:49.544Z,21.93
2019-02-25T08:42:37.129Z,26.33
2019-02-25T08:45:32.769Z,26.27
2019-02-25T08:48:19.727Z,27.03
2019-02-25T08:50:47.161Z,28.70
2019-02-25T08:53:14.619Z,30.63
2019-02-25T08:55:42.122Z,29.67
2019-02-25T08:58:09.590Z,25.70
2019-02-25T09:00:37.047Z,23.77
2019-02-25T09:03:04.518Z,30.07
2019-02-25T09:05:31.970Z,27.00
2019-02-25T09:07:59.435Z,34.17
2019-02-25T09:10:26.871Z,22.13
2019-02-25T09:12:54.327Z,28.27
2019-02-25T09:15:21.877Z,22.30
2019-02-25T09:17:48.361Z,26.13
2019-02-25T09:20:15.782Z,30.83
2019-02-25T09:22:43.211Z,23.57
2019-02-25T09:25:11.063Z,27.77
2019-02-25T09:27:38.511Z,24.67
2019-02-25T09:30:09.673Z,28.27
2019-02-25T09:32:37.146Z,28.17
2019-02-25T09:35:04.720Z,26.55
2019-02-25T09:37:32.156Z,35.30
2019-02-25T09:39:59.631Z,25.55
2019-02-25T09:42:27.448Z,23.98
2019-02-25T09:44:54.968Z,21.02
2019-02-25T09:47:22.417Z,22.00
2019-02-25T09:49:51.058Z,24.65
2019-02-25T09:52:18.598Z,22.90
2019-02-25T09:54:46.077Z,22.17
2019-02-25T09:57:13.537Z,22.95
2019-02-25T09:59:41.067Z,24.07
2019-02-25T10:02:08.546Z,37.88
2019-02-25T10:04:36.036Z,29.85
2019-02-25T10:07:03.556Z,27.82
2019-02-25T10:09:32.435Z,21.77
2019-02-25T10:11:59.988Z,26.50
2019-02-25T10:14:27.446Z,26.15
2019-02-25T10:16:54.899Z,23.27
2019-02-25T10:19:22.372Z,24.90
2019-02-25T10:21:49.824Z,24.85
2019-02-25T10:24:17.259Z,28.10
2019-02-25T10:26:45.070Z,22.70
2019-02-25T10:29:12.504Z,25.55
2019-02-25T10:31:41.554Z,22.20
2019-02-25T10:34:09.259Z,26.20
2019-02-25T10:36:36.741Z,21.00
2019-02-25T10:39:09.092Z,26.17
2019-02-25T10:41:37.341Z,22.00
2019-02-25T10:44:06.367Z,22.48
2019-02-25T10:46:34.072Z,18.85
2019-02-25T10:49:11.031Z,21.82
2019-02-25T10:51:31.375Z,23.10
2019-02-25T10:53:58.807Z,24.25
2019-02-25T10:56:33.613Z,17.48
2019-02-25T10:59:02.311Z,18.32
2019-02-25T11:01:30.379Z,17.05
2019-02-25T11:03:57.840Z,16.07
2019-02-25T11:06:27.368Z,19.07
2019-02-25T11:09:04.574Z,18.27
2019-02-25T11:11:35.025Z,16.52
2019-02-25T11:14:03.421Z,17.32
2019-02-25T11:16:31.781Z,19.35
2019-02-25T11:19:00.880Z,16.73
2019-02-25T11:21:28.460Z,14.45
2019-02-25T11:23:55.923Z,17.32
2019-02-25T11:26:23.806Z,16.77
2019-02-25T11:28:52.658Z,15.95
2019-02-25T11:31:24.378Z,17.60
2019-02-25T11:33:49.844Z,17.00
2019-02-25T11:36:19.568Z,17.82
2019-02-25T11:38:46.701Z,18.55
2019-02-25T11:41:14.213Z,21.55
2019-02-25T11:43:43.359Z,14.13
2019-02-25T11:46:11.022Z,19.50
2019-02-25T11:48:38.533Z,17.02
2019-02-25T11:51:05.999Z,14.68
2019-02-25T11:53:33.437Z,14.43
2019-02-25T11:56:00.911Z,14.47
2019-02-25T11:58:28.401Z,14.58
2019-02-25T12:00:55.856Z,15.85
2019-02-25T12:03:23.451Z,18.00
2019-02-25T12:05:52.494Z,12.98
2019-02-25T12:08:20.174Z,15.85
2019-02-25T12:10:47.664Z,13.93
2019-02-25T12:13:15.117Z,13.08
2019-02-25T12:15:42.594Z,13.40
2019-02-25T12:18:10.082Z,15.30
2019-02-25T12:20:37.528Z,13.03
2019-02-25T12:23:05.005Z,11.60
2019-02-25T12:25:32.537Z,13.58
2019-02-25T12:27:59.941Z,13.85
2019-02-25T12:30:27.459Z,10.68
2019-02-25T12:32:54.918Z,17.48
2019-02-25T12:35:22.404Z,12.28
2019-02-25T12:37:49.882Z,14.78
2019-02-25T12:40:19.625Z,15.50
2019-02-25T12:42:47.239Z,18.48
2019-02-25T12:45:14.758Z,14.18
2019-02-25T12:47:42.667Z,15.28
2019-02-25T12:50:11.089Z,15.03
2019-02-25T12:52:38.597Z,14.28
2019-02-25T12:55:07.635Z,13.68
2019-02-25T12:57:35.192Z,14.85
2019-02-25T13:00:03.444Z,12.35
2019-02-25T13:02:30.941Z,12.90
2019-02-25T13:04:58.530Z,14.00
2019-02-25T13:07:26.701Z,13.03
2019-02-25T13:09:54.328Z,13.40
2019-02-25T13:12:21.852Z,15.23
2019-02-25T13:14:49.485Z,14.35
2019-02-25T13:17:17.128Z,13.32
2019-02-25T13:19:44.677Z,14.40
2019-02-25T13:22:13.467Z,14.47
2019-02-25T13:24:40.988Z,11.95
2019-02-25T13:27:11.032Z,13.00
2019-02-25T13:29:38.403Z,14.90
2019-02-25T13:32:06.449Z,12.15
2019-02-25T13:34:34.028Z,11.90
2019-02-25T13:37:01.952Z,13.53
2019-02-25T13:39:30.019Z,12.00
2019-02-25T13:41:57.659Z,13.22
2019-02-25T13:44:25.230Z,12.70
2019-02-25T13:46:52.856Z,13.28
2019-02-25T13:49:21.685Z,12.63
2019-02-25T13:51:49.279Z,11.95
2019-02-25T13:54:16.869Z,12.43
2019-02-25T13:56:44.592Z,12.82
2019-02-25T13:59:12.388Z,10.75
2019-02-25T14:01:41.405Z,11.83
2019-02-25T14:04:08.953Z,11.73
2019-02-25T14:06:36.498Z,14.23
2019-02-25T14:09:07.272Z,10.00
2019-02-25T14:11:36.317Z,13.53
2019-02-25T14:14:04.299Z,11.57
2019-02-25T14:16:31.904Z,12.58
2019-02-25T14:18:59.570Z,10.50
2019-02-25T14:21:27.855Z,13.15
2019-02-25T14:23:57.599Z,10.70
2019-02-25T14:26:25.286Z,12.47
2019-02-25T14:28:53.633Z,10.85
2019-02-25T14:31:21.703Z,12.73
2019-02-25T14:33:52.343Z,10.45
2019-02-25T14:36:22.023Z,9.00
2019-02-25T14:38:51.630Z,10.88
2019-02-25T14:41:21.237Z,14.35
2019-02-25T14:43:51.126Z,11.75
2019-02-25T14:46:24.043Z,10.30
2019-02-25T14:48:48.754Z,10.80
2019-02-25T14:51:16.361Z,8.83
2019-02-25T14:53:44.703Z,12.25
2019-02-25T14:56:13.526Z,15.15
2019-02-25T14:58:42.624Z,10.60
2019-02-25T15:01:10.786Z,12.13
2019-02-25T15:03:38.396Z,8.08
2019-02-25T15:06:06.052Z,12.82
2019-02-25T15:08:33.747Z,10.00
2019-02-25T15:11:02.415Z,12.28
2019-02-25T15:13:32.353Z,9.70
2019-02-25T15:16:00.164Z,9.33
2019-02-25T15:18:29.117Z,11.03
2019-02-25T15:20:58.540Z,11.38
2019-02-25T15:23:27.956Z,10.98
2019-02-25T15:26:05.000Z,10.55
2019-02-25T15:28:25.996Z,8.58
2019-02-25T15:30:53.499Z,12.18
2019-02-25T15:33:21.113Z,11.38
2019-02-25T15:35:49.254Z,11.65
2019-02-25T15:38:17.113Z,9.48
2019-02-25T15:40:44.719Z,8.45
2019-02-25T15:43:13.368Z,8.83
2019-02-25T15:45:42.628Z,9.68
2019-02-25T15:48:13.294Z,8.40
2019-02-25T15:50:44.117Z,7.60
2019-02-25T15:53:11.666Z,5.85
2019-02-25T15:55:40.736Z,10.08
2019-02-25T15:58:08.757Z,10.03
2019-02-25T16:00:36.831Z,16.93
2019-02-25T16:03:06.196Z,16.10
2019-02-25T16:05:36.283Z,14.43
2019-02-25T16:08:04.397Z,17.50
2019-02-25T16:10:32.075Z,18.20
2019-02-25T16:13:02.195Z,12.80
2019-02-25T16:15:30.699Z,11.30
2019-02-25T16:17:58.647Z,9.18
2019-02-25T16:20:27.250Z,11.53
2019-02-25T16:22:56.502Z,8.93
2019-02-25T16:25:25.269Z,9.83
2019-02-25T16:27:54.266Z,7.83
2019-02-25T16:30:23.496Z,8.93
2019-02-25T16:32:53.132Z,11.03
2019-02-25T16:35:21.203Z,10.38
2019-02-25T16:37:50.731Z,12.85
2019-02-25T16:40:24.440Z,13.25
2019-02-25T16:42:50.327Z,10.23
2019-02-25T16:45:18.579Z,15.00
2019-02-25T16:47:46.051Z,9.28
2019-02-25T16:50:14.248Z,14.40
2019-02-25T16:52:47.158Z,9.10
2019-02-25T16:55:18.169Z,8.08
2019-02-25T16:57:48.614Z,11.08
2019-02-25T17:00:16.791Z,11.48
2019-02-25T17:02:44.870Z,15.00
2019-02-25T17:05:12.421Z,18.65
2019-02-25T17:07:40.406Z,25.15
2019-02-25T17:10:11.625Z,25.30
2019-02-25T17:12:39.139Z,20.70
2019-02-25T17:15:10.124Z,26.68
2019-02-25T17:17:37.967Z,31.17
2019-02-25T17:20:10.217Z,27.32
2019-02-25T17:22:36.105Z,25.00
2019-02-25T17:25:08.158Z,23.62
2019-02-25T17:27:52.775Z,30.82
2019-02-25T17:30:21.919Z,27.30
2019-02-25T17:32:49.558Z,34.85
2019-02-25T17:35:19.014Z,35.65
2019-02-25T17:37:46.948Z,32.50
2019-02-25T17:40:15.296Z,33.90
2019-02-25T17:42:42.803Z,28.02
2019-02-25T17:45:16.569Z,25.92
2019-02-25T17:47:44.153Z,25.37
2019-02-25T17:50:13.054Z,24.72
2019-02-25T17:52:42.538Z,31.70
2019-02-25T17:55:12.782Z,29.30
2019-02-25T17:57:40.440Z,32.63
2019-02-25T18:00:15.431Z,25.55
2019-02-25T18:02:43.696Z,27.87
2019-02-25T18:05:13.718Z,28.62
2019-02-25T18:07:42.032Z,45.17
2019-02-25T18:10:11.121Z,24.67
2019-02-25T18:12:39.859Z,31.90
2019-02-25T18:15:10.453Z,25.70
2019-02-25T18:17:38.863Z,29.13
2019-02-25T18:20:08.581Z,26.00
2019-02-25T18:22:36.661Z,26.50
2019-02-25T18:25:05.007Z,33.40
2019-02-25T18:27:34.824Z,32.33
2019-02-25T18:30:02.079Z,36.73
2019-02-25T18:32:32.691Z,36.53
2019-02-25T18:35:00.725Z,33.90
2019-02-25T18:37:28.247Z,29.10
2019-02-25T18:39:56.528Z,30.07
2019-02-25T18:42:24.259Z,30.03
2019-02-25T18:44:53.413Z,34.83
2019-02-25T18:47:22.885Z,27.67
2019-02-25T18:49:52.193Z,27.50
2019-02-25T18:52:39.822Z,29.60
2019-02-25T18:55:10.684Z,29.37
2019-02-25T18:57:38.493Z,26.40
2019-02-25T19:00:08.024Z,22.57
2019-02-25T19:02:36.026Z,24.77
2019-02-25T19:05:07.112Z,26.10
2019-02-25T19:07:34.645Z,33.97
2019-02-25T19:10:02.128Z,30.10
2019-02-25T19:12:29.907Z,29.57
2019-02-25T19:14:59.807Z,26.17
2019-02-25T19:17:27.525Z,29.57
2019-02-25T19:19:56.505Z,28.70
2019-02-25T19:22:26.088Z,30.20
2019-02-25T19:24:53.688Z,25.13
2019-02-25T19:27:21.241Z,30.37
2019-02-25T19:29:49.423Z,32.47
2019-02-25T19:32:20.972Z,33.40
2019-02-25T19:34:48.512Z,33.87
2019-02-25T19:37:16.199Z,31.50
2019-02-25T19:39:44.535Z,32.90
2019-02-25T19:42:15.587Z,33.10
2019-02-25T19:44:42.805Z,26.63
2019-02-25T19:47:11.934Z,27.63
2019-02-25T19:49:41.405Z,28.33
2019-02-25T19:52:09.716Z,31.43
2019-02-25T19:54:40.946Z,32.80
2019-02-25T19:57:08.543Z,29.27
2019-02-25T19:59:36.939Z,27.77
2019-02-25T20:02:04.639Z,27.90
2019-02-25T20:04:35.608Z,31.47
2019-02-25T20:07:03.365Z,32.50
2019-02-25T20:09:31.125Z,36.47
2019-02-25T20:12:01.325Z,31.07
2019-02-25T20:14:31.057Z,36.90
2019-02-25T20:16:57.659Z,33.23
2019-02-25T20:19:25.290Z,31.13
2019-02-25T20:21:54.707Z,27.97
2019-02-25T20:24:23.915Z,27.30
2019-02-25T20:26:57.626Z,28.27
2019-02-25T20:29:22.814Z,24.73
2019-02-25T20:31:51.848Z,29.13
2019-02-25T20:34:20.691Z,27.03
2019-02-25T20:36:50.482Z,32.70
2019-02-25T20:39:19.806Z,29.60
2019-02-25T20:41:49.855Z,34.97
2019-02-25T20:44:18.559Z,32.03
2019-02-25T20:46:48.632Z,27.07
2019-02-25T20:49:18.140Z,27.80
2019-02-25T20:52:04.895Z,29.20
2019-02-25T20:54:32.720Z,31.63
2019-02-25T20:57:00.651Z,26.47
2019-02-25T20:59:30.366Z,31.17
2019-02-25T21:01:57.938Z,28.50
2019-02-25T21:04:27.588Z,30.87
2019-02-25T21:06:55.477Z,29.37
2019-02-25T21:09:24.093Z,28.60
2019-02-25T21:11:51.635Z,37.13
2019-02-25T21:14:19.243Z,33.83
2019-02-25T21:16:46.688Z,30.57
2019-02-25T21:19:15.566Z,32.63
2019-02-25T21:21:43.831Z,29.37
2019-02-25T21:24:13.427Z,32.57
2019-02-25T21:26:41.019Z,33.77
2019-02-25T21:29:09.676Z,25.33
2019-02-25T21:31:37.491Z,22.20
2019-02-25T21:34:04.966Z,23.50
2019-02-25T21:36:33.859Z,24.07
2019-02-25T21:39:02.450Z,22.40
2019-02-25T21:41:29.914Z,20.50
2019-02-25T21:43:59.149Z,20.40
2019-02-25T21:46:28.913Z,17.67
2019-02-25T21:48:57.539Z,18.77
2019-02-25T21:51:30.329Z,29.80
2019-02-25T21:53:55.953Z,27.13
2019-02-25T21:56:26.979Z,22.03
2019-02-25T21:58:54.401Z,27.23
2019-02-25T22:01:21.920Z,25.37
2019-02-25T22:03:52.474Z,31.70
2019-02-25T22:06:22.154Z,31.83
2019-02-25T22:08:52.102Z,27.83
2019-02-25T22:11:19.750Z,26.90
2019-02-25T22:13:48.664Z,31.97
2019-02-25T22:16:16.129Z,33.70
2019-02-25T22:18:43.628Z,30.83
2019-02-25T22:21:12.252Z,32.70
2019-02-25T22:23:40.554Z,29.03
2019-02-25T22:26:08.120Z,45.27
2019-02-25T22:28:37.571Z,35.43
2019-02-25T22:31:07.910Z,28.67
2019-02-25T22:33:34.267Z,39.87
2019-02-25T22:36:02.091Z,32.30
2019-02-25T22:38:29.558Z,28.67
2019-02-25T22:40:59.424Z,27.10
2019-02-25T22:43:26.392Z,27.63
2019-02-25T22:45:56.184Z,26.73
2019-02-25T22:48:23.272Z,29.13
2019-02-25T22:50:55.333Z,23.23
2019-02-25T22:53:21.844Z,30.00
2019-02-25T22:55:49.905Z,27.20
2019-02-25T22:58:18.657Z,29.73
2019-02-25T23:00:48.555Z,21.70
2019-02-25T23:03:18.514Z,22.00
2019-02-25T23:05:47.953Z,23.43
2019-02-25T23:08:15.595Z,22.87
2019-02-25T23:10:44.963Z,28.83
2019-02-25T23:13:13.792Z,22.63
2019-02-25T23:15:43.767Z,25.07
2019-02-25T23:18:13.887Z,28.17
2019-02-25T23:20:40.071Z,30.77
2019-02-25T23:23:07.560Z,25.30
2019-02-25T23:25:35.072Z,24.43
2019-02-25T23:28:02.591Z,18.93
2019-02-25T23:30:49.559Z,19.57
2019-02-25T23:33:19.217Z,19.90
2019-02-25T23:35:47.420Z,17.07
2019-02-25T23:38:16.019Z,19.97
2019-02-25T23:40:45.051Z,17.10
2019-02-25T23:43:14.440Z,23.70
2019-02-25T23:45:42.658Z,22.43
2019-02-25T23:48:11.758Z,19.27
2019-02-25T23:50:39.359Z,21.00
2019-02-25T23:53:06.910Z,24.37
2019-02-25T23:55:34.492Z,20.43
2019-02-25T23:58:02.110Z,22.23
